sensor_id;sensor_type;location;lat;lon;timestamp;P1;durP1;ratioP1;P2;durP2;ratioP2
61385;SDS011;47256;18.904;-99.054;2024-01-30T00:00:07;54.50;;;21.27;;
61385;SDS011;47256;18.904;-99.054;2024-01-30T00:02:35;62.78;;;26.92;;
61385;SDS011;47256;18.904;-99.054;2024-01-30T00:05:02;64.68;;;27.25;;
61385;SDS011;47256;18.904;-99.054;2024-01-30T00:07:30;75.20;;;28.45;;
61385;SDS011;47256;18.904;-99.054;2024-01-30T00:09:57;55.00;;;24.73;;
61385;SDS011;47256;18.904;-99.054;2024-01-30T00:12:24;67.30;;;22.33;;
61385;SDS011;47256;18.904;-99.054;2024-01-30T00:14:52;60.42;;;22.45;;
61385;SDS011;47256;18.904;-99.054;2024-01-30T00:17:20;47.00;;;21.90;;
61385;SDS011;47256;18.904;-99.054;2024-01-30T00:19:48;53.30;;;23.88;;
61385;SDS011;47256;18.904;-99.054;2024-01-30T00:22:15;59.00;;;22.10;;
61385;SDS011;47256;18.904;-99.054;2024-01-30T00:24:42;60.85;;;21.42;;
61385;SDS011;47256;18.904;-99.054;2024-01-30T00:27:12;52.55;;;20.55;;
61385;SDS011;47256;18.904;-99.054;2024-01-30T00:29:40;58.85;;;20.88;;
61385;SDS011;47256;18.904;-99.054;2024-01-30T00:32:07;58.63;;;20.58;;
61385;SDS011;47256;18.904;-99.054;2024-01-30T00:34:34;63.08;;;21.92;;
61385;SDS011;47256;18.904;-99.054;2024-01-30T00:37:02;52.55;;;18.75;;
61385;SDS011;47256;18.904;-99.054;2024-01-30T00:39:30;48.42;;;17.60;;
61385;SDS011;47256;18.904;-99.054;2024-01-30T00:41:57;48.40;;;18.25;;
61385;SDS011;47256;18.904;-99.054;2024-01-30T00:44:25;57.63;;;19.90;;
61385;SDS011;47256;18.904;-99.054;2024-01-30T00:46:53;50.38;;;18.45;;
61385;SDS011;47256;18.904;-99.054;2024-01-30T00:49:20;62.00;;;19.83;;
61385;SDS011;47256;18.904;-99.054;2024-01-30T00:51:48;63.30;;;20.20;;
61385;SDS011;47256;18.904;-99.054;2024-01-30T00:54:16;47.35;;;20.02;;
61385;SDS011;47256;18.904;-99.054;2024-01-30T00:56:45;54.38;;;19.75;;
61385;SDS011;47256;18.904;-99.054;2024-01-30T00:59:14;55.25;;;21.05;;
61385;SDS011;47256;18.904;-99.054;2024-01-30T01:01:41;65.38;;;25.45;;
61385;SDS011;47256;18.904;-99.054;2024-01-30T01:04:08;58.17;;;24.33;;
61385;SDS011;47256;18.904;-99.054;2024-01-30T01:06:35;55.20;;;23.98;;
61385;SDS011;47256;18.904;-99.054;2024-01-30T01:09:04;56.65;;;24.92;;
61385;SDS011;47256;18.904;-99.054;2024-01-30T01:11:32;48.78;;;22.48;;
61385;SDS011;47256;18.904;-99.054;2024-01-30T01:14:00;52.90;;;22.33;;
61385;SDS011;47256;18.904;-99.054;2024-01-30T01:16:27;49.33;;;23.23;;
61385;SDS011;47256;18.904;-99.054;2024-01-30T01:18:54;47.30;;;22.00;;
61385;SDS011;47256;18.904;-99.054;2024-01-30T01:21:22;59.38;;;25.25;;
61385;SDS011;47256;18.904;-99.054;2024-01-30T01:23:50;53.47;;;23.00;;
61385;SDS011;47256;18.904;-99.054;2024-01-30T01:26:18;66.25;;;25.58;;
61385;SDS011;47256;18.904;-99.054;2024-01-30T01:28:45;51.20;;;27.52;;
61385;SDS011;47256;18.904;-99.054;2024-01-30T01:31:13;80.22;;;38.28;;
61385;SDS011;47256;18.904;-99.054;2024-01-30T01:33:40;95.18;;;46.10;;
61385;SDS011;47256;18.904;-99.054;2024-01-30T01:36:07;91.60;;;48.28;;
61385;SDS011;47256;18.904;-99.054;2024-01-30T01:38:35;106.65;;;57.95;;
61385;SDS011;47256;18.904;-99.054;2024-01-30T01:41:02;93.70;;;51.33;;
61385;SDS011;47256;18.904;-99.054;2024-01-30T01:43:29;103.45;;;50.70;;
61385;SDS011;47256;18.904;-99.054;2024-01-30T01:45:56;90.93;;;46.30;;
61385;SDS011;47256;18.904;-99.054;2024-01-30T01:48:26;71.10;;;36.67;;
61385;SDS011;47256;18.904;-99.054;2024-01-30T01:50:54;74.07;;;33.03;;
61385;SDS011;47256;18.904;-99.054;2024-01-30T01:53:23;68.18;;;31.92;;
61385;SDS011;47256;18.904;-99.054;2024-01-30T01:55:51;59.00;;;23.67;;
61385;SDS011;47256;18.904;-99.054;2024-01-30T01:58:20;65.57;;;29.08;;
61385;SDS011;47256;18.904;-99.054;2024-01-30T02:00:49;58.13;;;28.08;;
61385;SDS011;47256;18.904;-99.054;2024-01-30T02:03:17;51.85;;;26.98;;
61385;SDS011;47256;18.904;-99.054;2024-01-30T02:05:47;58.28;;;22.50;;
61385;SDS011;47256;18.904;-99.054;2024-01-30T02:08:16;59.75;;;20.73;;
61385;SDS011;47256;18.904;-99.054;2024-01-30T02:10:46;32.55;;;16.35;;
61385;SDS011;47256;18.904;-99.054;2024-01-30T02:13:14;38.95;;;14.50;;
61385;SDS011;47256;18.904;-99.054;2024-01-30T02:15:41;34.92;;;13.88;;
61385;SDS011;47256;18.904;-99.054;2024-01-30T02:18:08;37.92;;;16.08;;
61385;SDS011;47256;18.904;-99.054;2024-01-30T02:20:39;35.80;;;15.95;;
61385;SDS011;47256;18.904;-99.054;2024-01-30T02:23:07;57.60;;;16.58;;
61385;SDS011;47256;18.904;-99.054;2024-01-30T02:25:40;40.65;;;16.25;;
61385;SDS011;47256;18.904;-99.054;2024-01-30T02:28:13;34.95;;;17.23;;
61385;SDS011;47256;18.904;-99.054;2024-01-30T02:30:42;33.55;;;17.17;;
61385;SDS011;47256;18.904;-99.054;2024-01-30T02:33:09;37.35;;;15.93;;
61385;SDS011;47256;18.904;-99.054;2024-01-30T02:35:37;43.85;;;18.27;;
61385;SDS011;47256;18.904;-99.054;2024-01-30T02:38:04;32.15;;;17.60;;
61385;SDS011;47256;18.904;-99.054;2024-01-30T02:40:32;38.60;;;16.08;;
61385;SDS011;47256;18.904;-99.054;2024-01-30T02:42:59;69.10;;;29.35;;
61385;SDS011;47256;18.904;-99.054;2024-01-30T02:45:28;58.25;;;20.38;;
61385;SDS011;47256;18.904;-99.054;2024-01-30T02:47:56;47.15;;;17.52;;
61385;SDS011;47256;18.904;-99.054;2024-01-30T02:50:23;47.83;;;17.48;;
61385;SDS011;47256;18.904;-99.054;2024-01-30T02:52:52;51.75;;;19.33;;
61385;SDS011;47256;18.904;-99.054;2024-01-30T02:55:19;47.28;;;18.42;;
61385;SDS011;47256;18.904;-99.054;2024-01-30T02:57:50;45.60;;;16.80;;
61385;SDS011;47256;18.904;-99.054;2024-01-30T03:00:20;40.80;;;18.85;;
61385;SDS011;47256;18.904;-99.054;2024-01-30T03:02:47;51.40;;;19.85;;
61385;SDS011;47256;18.904;-99.054;2024-01-30T03:05:17;37.38;;;17.00;;
61385;SDS011;47256;18.904;-99.054;2024-01-30T03:07:47;36.15;;;17.20;;
61385;SDS011;47256;18.904;-99.054;2024-01-30T03:10:18;51.80;;;20.40;;
61385;SDS011;47256;18.904;-99.054;2024-01-30T03:12:48;42.47;;;18.30;;
61385;SDS011;47256;18.904;-99.054;2024-01-30T03:15:15;50.00;;;17.40;;
61385;SDS011;47256;18.904;-99.054;2024-01-30T03:17:42;39.33;;;16.30;;
61385;SDS011;47256;18.904;-99.054;2024-01-30T03:20:12;36.95;;;17.15;;
61385;SDS011;47256;18.904;-99.054;2024-01-30T03:22:43;36.97;;;17.40;;
61385;SDS011;47256;18.904;-99.054;2024-01-30T03:25:10;35.75;;;16.58;;
61385;SDS011;47256;18.904;-99.054;2024-01-30T03:27:37;34.40;;;16.50;;
61385;SDS011;47256;18.904;-99.054;2024-01-30T03:30:06;46.65;;;18.40;;
61385;SDS011;47256;18.904;-99.054;2024-01-30T03:32:34;36.20;;;15.40;;
61385;SDS011;47256;18.904;-99.054;2024-01-30T03:35:03;31.45;;;14.73;;
61385;SDS011;47256;18.904;-99.054;2024-01-30T03:37:34;31.67;;;16.02;;
61385;SDS011;47256;18.904;-99.054;2024-01-30T03:40:04;33.13;;;15.38;;
61385;SDS011;47256;18.904;-99.054;2024-01-30T03:42:32;32.15;;;16.17;;
61385;SDS011;47256;18.904;-99.054;2024-01-30T03:45:05;35.47;;;15.82;;
61385;SDS011;47256;18.904;-99.054;2024-01-30T03:47:38;30.30;;;14.13;;
61385;SDS011;47256;18.904;-99.054;2024-01-30T03:50:12;33.33;;;13.10;;
61385;SDS011;47256;18.904;-99.054;2024-01-30T03:52:39;45.03;;;15.68;;
61385;SDS011;47256;18.904;-99.054;2024-01-30T03:55:08;30.30;;;16.45;;
61385;SDS011;47256;18.904;-99.054;2024-01-30T03:57:35;39.40;;;17.05;;
61385;SDS011;47256;18.904;-99.054;2024-01-30T04:00:02;44.60;;;20.40;;
61385;SDS011;47256;18.904;-99.054;2024-01-30T04:02:40;43.95;;;21.50;;
61385;SDS011;47256;18.904;-99.054;2024-01-30T04:05:07;38.45;;;20.10;;
61385;SDS011;47256;18.904;-99.054;2024-01-30T04:07:48;51.45;;;22.02;;
61385;SDS011;47256;18.904;-99.054;2024-01-30T04:10:16;45.45;;;22.38;;
61385;SDS011;47256;18.904;-99.054;2024-01-30T04:12:52;51.63;;;22.83;;
61385;SDS011;47256;18.904;-99.054;2024-01-30T04:15:19;58.67;;;24.20;;
61385;SDS011;47256;18.904;-99.054;2024-01-30T04:17:47;47.80;;;21.85;;
61385;SDS011;47256;18.904;-99.054;2024-01-30T04:20:15;44.85;;;21.50;;
61385;SDS011;47256;18.904;-99.054;2024-01-30T04:22:48;46.22;;;23.58;;
61385;SDS011;47256;18.904;-99.054;2024-01-30T04:25:15;42.10;;;18.70;;
61385;SDS011;47256;18.904;-99.054;2024-01-30T04:27:45;32.50;;;17.80;;
61385;SDS011;47256;18.904;-99.054;2024-01-30T04:30:13;29.35;;;15.82;;
61385;SDS011;47256;18.904;-99.054;2024-01-30T04:32:47;30.33;;;16.73;;
61385;SDS011;47256;18.904;-99.054;2024-01-30T04:35:20;39.75;;;17.05;;
61385;SDS011;47256;18.904;-99.054;2024-01-30T04:37:53;31.42;;;16.58;;
61385;SDS011;47256;18.904;-99.054;2024-01-30T04:40:24;30.63;;;18.13;;
61385;SDS011;47256;18.904;-99.054;2024-01-30T04:42:57;40.17;;;18.70;;
61385;SDS011;47256;18.904;-99.054;2024-01-30T04:45:24;45.35;;;20.08;;
61385;SDS011;47256;18.904;-99.054;2024-01-30T04:47:54;48.05;;;20.40;;
61385;SDS011;47256;18.904;-99.054;2024-01-30T04:50:21;54.08;;;22.10;;
61385;SDS011;47256;18.904;-99.054;2024-01-30T04:52:50;51.42;;;24.70;;
61385;SDS011;47256;18.904;-99.054;2024-01-30T04:55:18;47.83;;;24.48;;
61385;SDS011;47256;18.904;-99.054;2024-01-30T04:57:45;51.60;;;24.77;;
61385;SDS011;47256;18.904;-99.054;2024-01-30T05:00:12;50.20;;;25.05;;
61385;SDS011;47256;18.904;-99.054;2024-01-30T05:02:41;64.63;;;27.88;;
61385;SDS011;47256;18.904;-99.054;2024-01-30T05:05:13;60.55;;;26.70;;
61385;SDS011;47256;18.904;-99.054;2024-01-30T05:07:43;55.60;;;25.67;;
61385;SDS011;47256;18.904;-99.054;2024-01-30T05:10:11;57.63;;;26.92;;
61385;SDS011;47256;18.904;-99.054;2024-01-30T05:12:41;60.05;;;25.30;;
61385;SDS011;47256;18.904;-99.054;2024-01-30T05:15:09;58.30;;;24.75;;
61385;SDS011;47256;18.904;-99.054;2024-01-30T05:17:36;43.22;;;21.35;;
61385;SDS011;47256;18.904;-99.054;2024-01-30T05:20:06;51.60;;;22.55;;
61385;SDS011;47256;18.904;-99.054;2024-01-30T05:22:38;56.90;;;22.83;;
61385;SDS011;47256;18.904;-99.054;2024-01-30T05:25:16;49.50;;;20.60;;
61385;SDS011;47256;18.904;-99.054;2024-01-30T05:27:50;44.50;;;20.45;;
61385;SDS011;47256;18.904;-99.054;2024-01-30T05:30:20;42.45;;;20.45;;
61385;SDS011;47256;18.904;-99.054;2024-01-30T05:32:50;39.65;;;19.98;;
61385;SDS011;47256;18.904;-99.054;2024-01-30T05:35:21;42.00;;;20.70;;
61385;SDS011;47256;18.904;-99.054;2024-01-30T05:37:53;42.10;;;20.05;;
61385;SDS011;47256;18.904;-99.054;2024-01-30T05:40:20;42.80;;;18.77;;
61385;SDS011;47256;18.904;-99.054;2024-01-30T05:42:49;35.88;;;18.75;;
61385;SDS011;47256;18.904;-99.054;2024-01-30T05:45:16;33.38;;;17.15;;
61385;SDS011;47256;18.904;-99.054;2024-01-30T05:47:46;40.33;;;19.08;;
61385;SDS011;47256;18.904;-99.054;2024-01-30T05:50:14;36.70;;;19.05;;
61385;SDS011;47256;18.904;-99.054;2024-01-30T05:52:48;35.83;;;18.55;;
61385;SDS011;47256;18.904;-99.054;2024-01-30T05:55:16;35.45;;;17.35;;
61385;SDS011;47256;18.904;-99.054;2024-01-30T05:57:43;37.20;;;18.20;;
61385;SDS011;47256;18.904;-99.054;2024-01-30T06:00:10;37.05;;;18.17;;
61385;SDS011;47256;18.904;-99.054;2024-01-30T06:02:38;38.97;;;17.88;;
61385;SDS011;47256;18.904;-99.054;2024-01-30T06:05:05;37.33;;;18.17;;
61385;SDS011;47256;18.904;-99.054;2024-01-30T06:07:33;36.45;;;17.63;;
61385;SDS011;47256;18.904;-99.054;2024-01-30T06:10:00;30.10;;;15.35;;
61385;SDS011;47256;18.904;-99.054;2024-01-30T06:12:30;34.58;;;17.20;;
61385;SDS011;47256;18.904;-99.054;2024-01-30T06:14:57;29.02;;;17.85;;
61385;SDS011;47256;18.904;-99.054;2024-01-30T06:17:28;37.15;;;17.27;;
61385;SDS011;47256;18.904;-99.054;2024-01-30T06:19:55;30.52;;;16.73;;
61385;SDS011;47256;18.904;-99.054;2024-01-30T06:22:23;41.45;;;17.98;;
61385;SDS011;47256;18.904;-99.054;2024-01-30T06:24:51;37.92;;;16.77;;
61385;SDS011;47256;18.904;-99.054;2024-01-30T06:27:18;35.38;;;17.67;;
61385;SDS011;47256;18.904;-99.054;2024-01-30T06:29:47;35.58;;;17.15;;
61385;SDS011;47256;18.904;-99.054;2024-01-30T06:32:14;35.25;;;18.05;;
61385;SDS011;47256;18.904;-99.054;2024-01-30T06:34:41;35.42;;;18.85;;
61385;SDS011;47256;18.904;-99.054;2024-01-30T06:37:10;35.63;;;17.75;;
61385;SDS011;47256;18.904;-99.054;2024-01-30T06:39:41;37.60;;;20.20;;
61385;SDS011;47256;18.904;-99.054;2024-01-30T06:42:14;37.65;;;18.85;;
61385;SDS011;47256;18.904;-99.054;2024-01-30T06:44:43;44.60;;;20.10;;
61385;SDS011;47256;18.904;-99.054;2024-01-30T06:47:10;29.00;;;16.52;;
61385;SDS011;47256;18.904;-99.054;2024-01-30T06:49:39;32.17;;;17.25;;
61385;SDS011;47256;18.904;-99.054;2024-01-30T06:52:08;35.85;;;17.35;;
61385;SDS011;47256;18.904;-99.054;2024-01-30T06:54:42;45.53;;;18.88;;
61385;SDS011;47256;18.904;-99.054;2024-01-30T06:57:09;30.77;;;17.50;;
61385;SDS011;47256;18.904;-99.054;2024-01-30T06:59:38;38.72;;;17.55;;
61385;SDS011;47256;18.904;-99.054;2024-01-30T07:02:10;37.33;;;18.13;;
61385;SDS011;47256;18.904;-99.054;2024-01-30T07:04:41;44.53;;;18.20;;
61385;SDS011;47256;18.904;-99.054;2024-01-30T07:07:08;36.05;;;18.60;;
61385;SDS011;47256;18.904;-99.054;2024-01-30T07:09:41;38.20;;;20.10;;
61385;SDS011;47256;18.904;-99.054;2024-01-30T07:12:08;42.92;;;18.15;;
61385;SDS011;47256;18.904;-99.054;2024-01-30T07:14:38;53.97;;;20.40;;
61385;SDS011;47256;18.904;-99.054;2024-01-30T07:17:06;65.68;;;30.40;;
61385;SDS011;47256;18.904;-99.054;2024-01-30T07:19:35;49.33;;;26.27;;
61385;SDS011;47256;18.904;-99.054;2024-01-30T07:22:09;60.08;;;29.50;;
61385;SDS011;47256;18.904;-99.054;2024-01-30T07:24:43;123.70;;;51.72;;
61385;SDS011;47256;18.904;-99.054;2024-01-30T07:27:18;109.10;;;45.53;;
61385;SDS011;47256;18.904;-99.054;2024-01-30T07:29:46;78.85;;;39.83;;
61385;SDS011;47256;18.904;-99.054;2024-01-30T07:32:16;73.15;;;32.88;;
61385;SDS011;47256;18.904;-99.054;2024-01-30T07:34:45;75.75;;;33.70;;
61385;SDS011;47256;18.904;-99.054;2024-01-30T07:37:12;64.22;;;32.95;;
61385;SDS011;47256;18.904;-99.054;2024-01-30T07:39:42;69.18;;;32.78;;
61385;SDS011;47256;18.904;-99.054;2024-01-30T07:42:12;77.28;;;27.98;;
61385;SDS011;47256;18.904;-99.054;2024-01-30T07:44:43;67.28;;;31.38;;
61385;SDS011;47256;18.904;-99.054;2024-01-30T07:47:14;66.53;;;30.13;;
61385;SDS011;47256;18.904;-99.054;2024-01-30T07:49:42;67.15;;;30.52;;
61385;SDS011;47256;18.904;-99.054;2024-01-30T07:52:10;63.47;;;31.05;;
61385;SDS011;47256;18.904;-99.054;2024-01-30T07:57:30;45.10;;;23.88;;
61385;SDS011;47256;18.904;-99.054;2024-01-30T07:59:57;44.35;;;25.35;;
61385;SDS011;47256;18.904;-99.054;2024-01-30T08:02:32;42.10;;;22.17;;
61385;SDS011;47256;18.904;-99.054;2024-01-30T08:05:01;38.90;;;20.00;;
61385;SDS011;47256;18.904;-99.054;2024-01-30T08:07:29;36.60;;;18.15;;
61385;SDS011;47256;18.904;-99.054;2024-01-30T08:10:00;34.72;;;18.50;;
61385;SDS011;47256;18.904;-99.054;2024-01-30T08:12:28;31.92;;;17.38;;
61385;SDS011;47256;18.904;-99.054;2024-01-30T08:15:00;33.42;;;18.65;;
61385;SDS011;47256;18.904;-99.054;2024-01-30T08:17:32;43.67;;;18.65;;
61385;SDS011;47256;18.904;-99.054;2024-01-30T08:20:05;34.95;;;18.73;;
61385;SDS011;47256;18.904;-99.054;2024-01-30T08:22:34;33.30;;;16.70;;
61385;SDS011;47256;18.904;-99.054;2024-01-30T08:25:03;37.63;;;16.48;;
61385;SDS011;47256;18.904;-99.054;2024-01-30T08:27:41;29.60;;;16.70;;
61385;SDS011;47256;18.904;-99.054;2024-01-30T08:30:08;29.58;;;17.10;;
61385;SDS011;47256;18.904;-99.054;2024-01-30T08:32:57;37.85;;;18.08;;
61385;SDS011;47256;18.904;-99.054;2024-01-30T08:35:24;36.45;;;17.83;;
61385;SDS011;47256;18.904;-99.054;2024-01-30T08:37:59;53.67;;;17.50;;
61385;SDS011;47256;18.904;-99.054;2024-01-30T08:40:32;33.78;;;16.90;;
61385;SDS011;47256;18.904;-99.054;2024-01-30T08:43:01;44.75;;;17.23;;
61385;SDS011;47256;18.904;-99.054;2024-01-30T08:45:32;31.02;;;16.45;;
61385;SDS011;47256;18.904;-99.054;2024-01-30T08:48:00;32.30;;;17.40;;
61385;SDS011;47256;18.904;-99.054;2024-01-30T08:50:27;34.95;;;15.63;;
61385;SDS011;47256;18.904;-99.054;2024-01-30T08:53:00;29.80;;;15.32;;
61385;SDS011;47256;18.904;-99.054;2024-01-30T08:55:28;39.42;;;16.27;;
61385;SDS011;47256;18.904;-99.054;2024-01-30T08:57:56;38.83;;;15.90;;
61385;SDS011;47256;18.904;-99.054;2024-01-30T09:00:23;35.33;;;16.67;;
61385;SDS011;47256;18.904;-99.054;2024-01-30T09:02:50;27.45;;;16.08;;
61385;SDS011;47256;18.904;-99.054;2024-01-30T09:05:18;34.40;;;16.17;;
61385;SDS011;47256;18.904;-99.054;2024-01-30T09:07:45;35.72;;;17.17;;
61385;SDS011;47256;18.904;-99.054;2024-01-30T09:10:15;29.38;;;16.92;;
61385;SDS011;47256;18.904;-99.054;2024-01-30T09:12:42;33.38;;;15.45;;
61385;SDS011;47256;18.904;-99.054;2024-01-30T09:15:10;44.28;;;16.55;;
61385;SDS011;47256;18.904;-99.054;2024-01-30T09:17:40;30.75;;;16.15;;
61385;SDS011;47256;18.904;-99.054;2024-01-30T09:20:10;28.75;;;15.80;;
61385;SDS011;47256;18.904;-99.054;2024-01-30T09:22:37;29.05;;;15.80;;
61385;SDS011;47256;18.904;-99.054;2024-01-30T09:25:09;35.85;;;17.10;;
61385;SDS011;47256;18.904;-99.054;2024-01-30T09:27:36;30.30;;;15.75;;
61385;SDS011;47256;18.904;-99.054;2024-01-30T09:30:04;35.78;;;16.67;;
61385;SDS011;47256;18.904;-99.054;2024-01-30T09:32:35;35.97;;;16.80;;
61385;SDS011;47256;18.904;-99.054;2024-01-30T09:35:07;35.80;;;17.20;;
61385;SDS011;47256;18.904;-99.054;2024-01-30T09:37:39;54.25;;;21.98;;
61385;SDS011;47256;18.904;-99.054;2024-01-30T09:40:11;49.88;;;19.40;;
61385;SDS011;47256;18.904;-99.054;2024-01-30T09:42:39;36.67;;;16.38;;
61385;SDS011;47256;18.904;-99.054;2024-01-30T09:45:15;31.90;;;16.52;;
61385;SDS011;47256;18.904;-99.054;2024-01-30T09:47:53;36.17;;;17.63;;
61385;SDS011;47256;18.904;-99.054;2024-01-30T09:50:20;29.13;;;16.20;;
61385;SDS011;47256;18.904;-99.054;2024-01-30T09:52:50;30.48;;;16.08;;
61385;SDS011;47256;18.904;-99.054;2024-01-30T09:55:24;32.25;;;16.17;;
61385;SDS011;47256;18.904;-99.054;2024-01-30T09:57:52;25.85;;;16.15;;
61385;SDS011;47256;18.904;-99.054;2024-01-30T10:00:22;38.00;;;16.42;;
61385;SDS011;47256;18.904;-99.054;2024-01-30T10:02:53;28.30;;;14.25;;
61385;SDS011;47256;18.904;-99.054;2024-01-30T10:05:29;36.00;;;16.67;;
61385;SDS011;47256;18.904;-99.054;2024-01-30T10:08:01;28.90;;;14.85;;
61385;SDS011;47256;18.904;-99.054;2024-01-30T10:10:35;31.58;;;16.23;;
61385;SDS011;47256;18.904;-99.054;2024-01-30T10:13:05;24.48;;;14.55;;
61385;SDS011;47256;18.904;-99.054;2024-01-30T10:15:33;30.20;;;13.10;;
61385;SDS011;47256;18.904;-99.054;2024-01-30T10:18:03;32.20;;;13.60;;
61385;SDS011;47256;18.904;-99.054;2024-01-30T10:20:33;20.83;;;13.20;;
61385;SDS011;47256;18.904;-99.054;2024-01-30T10:23:02;33.47;;;14.80;;
61385;SDS011;47256;18.904;-99.054;2024-01-30T10:25:35;29.50;;;13.70;;
61385;SDS011;47256;18.904;-99.054;2024-01-30T10:28:04;33.05;;;13.75;;
61385;SDS011;47256;18.904;-99.054;2024-01-30T10:30:31;25.45;;;12.75;;
61385;SDS011;47256;18.904;-99.054;2024-01-30T10:33:01;26.70;;;13.15;;
61385;SDS011;47256;18.904;-99.054;2024-01-30T10:35:30;25.13;;;12.82;;
61385;SDS011;47256;18.904;-99.054;2024-01-30T10:37:57;22.42;;;13.23;;
61385;SDS011;47256;18.904;-99.054;2024-01-30T10:40:32;21.98;;;13.63;;
61385;SDS011;47256;18.904;-99.054;2024-01-30T10:43:05;23.90;;;12.85;;
61385;SDS011;47256;18.904;-99.054;2024-01-30T10:45:38;30.92;;;11.90;;
61385;SDS011;47256;18.904;-99.054;2024-01-30T10:48:10;19.63;;;11.75;;
61385;SDS011;47256;18.904;-99.054;2024-01-30T10:50:44;26.88;;;12.68;;
61385;SDS011;47256;18.904;-99.054;2024-01-30T10:53:12;22.95;;;13.23;;
61385;SDS011;47256;18.904;-99.054;2024-01-30T10:55:44;19.65;;;11.38;;
61385;SDS011;47256;18.904;-99.054;2024-01-30T10:58:14;23.15;;;11.68;;
61385;SDS011;47256;18.904;-99.054;2024-01-30T11:00:42;17.52;;;11.70;;
61385;SDS011;47256;18.904;-99.054;2024-01-30T11:03:09;30.27;;;11.90;;
61385;SDS011;47256;18.904;-99.054;2024-01-30T11:05:40;27.00;;;12.07;;
61385;SDS011;47256;18.904;-99.054;2024-01-30T11:08:12;24.48;;;11.30;;
61385;SDS011;47256;18.904;-99.054;2024-01-30T11:10:46;19.58;;;11.60;;
61385;SDS011;47256;18.904;-99.054;2024-01-30T11:13:20;26.27;;;11.48;;
61385;SDS011;47256;18.904;-99.054;2024-01-30T11:15:47;25.23;;;11.82;;
61385;SDS011;47256;18.904;-99.054;2024-01-30T11:18:24;23.45;;;12.65;;
61385;SDS011;47256;18.904;-99.054;2024-01-30T11:20:52;24.13;;;11.52;;
61385;SDS011;47256;18.904;-99.054;2024-01-30T11:23:30;23.83;;;12.90;;
61385;SDS011;47256;18.904;-99.054;2024-01-30T11:26:02;22.63;;;11.55;;
61385;SDS011;47256;18.904;-99.054;2024-01-30T11:28:34;26.98;;;11.57;;
61385;SDS011;47256;18.904;-99.054;2024-01-30T11:31:04;22.70;;;11.40;;
61385;SDS011;47256;18.904;-99.054;2024-01-30T11:33:36;19.17;;;11.75;;
61385;SDS011;47256;18.904;-99.054;2024-01-30T11:36:04;19.70;;;10.60;;
61385;SDS011;47256;18.904;-99.054;2024-01-30T11:38:36;23.52;;;12.63;;
61385;SDS011;47256;18.904;-99.054;2024-01-30T11:41:06;25.60;;;11.93;;
61385;SDS011;47256;18.904;-99.054;2024-01-30T11:43:34;24.77;;;12.00;;
61385;SDS011;47256;18.904;-99.054;2024-01-30T11:46:01;25.30;;;12.35;;
61385;SDS011;47256;18.904;-99.054;2024-01-30T11:48:28;29.50;;;12.10;;
61385;SDS011;47256;18.904;-99.054;2024-01-30T11:50:57;25.58;;;11.82;;
61385;SDS011;47256;18.904;-99.054;2024-01-30T11:53:27;24.58;;;12.00;;
61385;SDS011;47256;18.904;-99.054;2024-01-30T11:55:54;27.67;;;13.23;;
61385;SDS011;47256;18.904;-99.054;2024-01-30T11:58:25;27.27;;;13.50;;
61385;SDS011;47256;18.904;-99.054;2024-01-30T12:00:56;27.50;;;12.63;;
61385;SDS011;47256;18.904;-99.054;2024-01-30T12:03:24;72.40;;;15.20;;
61385;SDS011;47256;18.904;-99.054;2024-01-30T12:05:55;66.45;;;15.10;;
61385;SDS011;47256;18.904;-99.054;2024-01-30T12:08:31;41.38;;;12.13;;
61385;SDS011;47256;18.904;-99.054;2024-01-30T12:10:58;32.10;;;13.10;;
61385;SDS011;47256;18.904;-99.054;2024-01-30T12:13:28;27.58;;;12.93;;
61385;SDS011;47256;18.904;-99.054;2024-01-30T12:15:56;27.30;;;12.05;;
61385;SDS011;47256;18.904;-99.054;2024-01-30T12:18:23;24.75;;;12.95;;
61385;SDS011;47256;18.904;-99.054;2024-01-30T12:20:58;28.23;;;11.82;;
61385;SDS011;47256;18.904;-99.054;2024-01-30T12:23:26;29.08;;;11.60;;
61385;SDS011;47256;18.904;-99.054;2024-01-30T12:25:59;23.75;;;12.52;;
61385;SDS011;47256;18.904;-99.054;2024-01-30T12:28:29;25.98;;;14.98;;
61385;SDS011;47256;18.904;-99.054;2024-01-30T12:31:01;35.60;;;16.15;;
61385;SDS011;47256;18.904;-99.054;2024-01-30T12:33:32;21.42;;;11.45;;
61385;SDS011;47256;18.904;-99.054;2024-01-30T12:36:03;22.63;;;12.00;;
61385;SDS011;47256;18.904;-99.054;2024-01-30T12:38:32;25.75;;;12.15;;
61385;SDS011;47256;18.904;-99.054;2024-01-30T12:41:00;26.38;;;12.10;;
61385;SDS011;47256;18.904;-99.054;2024-01-30T12:43:27;28.88;;;12.70;;
61385;SDS011;47256;18.904;-99.054;2024-01-30T12:45:55;20.88;;;12.60;;
61385;SDS011;47256;18.904;-99.054;2024-01-30T12:48:26;40.88;;;18.33;;
61385;SDS011;47256;18.904;-99.054;2024-01-30T12:50:58;47.17;;;22.33;;
61385;SDS011;47256;18.904;-99.054;2024-01-30T12:53:28;50.53;;;19.85;;
61385;SDS011;47256;18.904;-99.054;2024-01-30T12:55:57;47.53;;;21.10;;
61385;SDS011;47256;18.904;-99.054;2024-01-30T12:58:24;44.58;;;21.00;;
61385;SDS011;47256;18.904;-99.054;2024-01-30T13:00:54;73.82;;;27.77;;
61385;SDS011;47256;18.904;-99.054;2024-01-30T13:03:21;76.70;;;31.45;;
61385;SDS011;47256;18.904;-99.054;2024-01-30T13:05:52;87.35;;;38.92;;
61385;SDS011;47256;18.904;-99.054;2024-01-30T13:08:19;92.60;;;37.58;;
61385;SDS011;47256;18.904;-99.054;2024-01-30T13:10:49;62.45;;;31.17;;
61385;SDS011;47256;18.904;-99.054;2024-01-30T13:13:18;56.22;;;25.42;;
61385;SDS011;47256;18.904;-99.054;2024-01-30T13:15:45;54.97;;;24.08;;
61385;SDS011;47256;18.904;-99.054;2024-01-30T13:18:12;62.33;;;29.70;;
61385;SDS011;47256;18.904;-99.054;2024-01-30T13:20:42;88.45;;;36.50;;
61385;SDS011;47256;18.904;-99.054;2024-01-30T13:23:09;69.68;;;31.30;;
61385;SDS011;47256;18.904;-99.054;2024-01-30T13:25:39;67.18;;;27.17;;
61385;SDS011;47256;18.904;-99.054;2024-01-30T13:28:06;63.78;;;21.42;;
61385;SDS011;47256;18.904;-99.054;2024-01-30T13:30:43;73.53;;;19.13;;
61385;SDS011;47256;18.904;-99.054;2024-01-30T13:33:10;44.95;;;17.67;;
61385;SDS011;47256;18.904;-99.054;2024-01-30T13:35:39;59.05;;;16.90;;
61385;SDS011;47256;18.904;-99.054;2024-01-30T13:38:09;62.13;;;15.38;;
61385;SDS011;47256;18.904;-99.054;2024-01-30T13:40:39;48.17;;;14.57;;
61385;SDS011;47256;18.904;-99.054;2024-01-30T13:43:07;43.85;;;15.02;;
61385;SDS011;47256;18.904;-99.054;2024-01-30T13:45:35;47.10;;;14.35;;
61385;SDS011;47256;18.904;-99.054;2024-01-30T13:48:02;44.53;;;13.77;;
61385;SDS011;47256;18.904;-99.054;2024-01-30T13:50:31;37.63;;;13.85;;
61385;SDS011;47256;18.904;-99.054;2024-01-30T13:53:02;52.03;;;13.52;;
61385;SDS011;47256;18.904;-99.054;2024-01-30T13:55:36;27.00;;;11.57;;
61385;SDS011;47256;18.904;-99.054;2024-01-30T13:58:05;26.42;;;10.73;;
61385;SDS011;47256;18.904;-99.054;2024-01-30T14:00:38;35.90;;;11.18;;
61385;SDS011;47256;18.904;-99.054;2024-01-30T14:03:05;21.67;;;10.43;;
61385;SDS011;47256;18.904;-99.054;2024-01-30T14:05:35;20.38;;;10.35;;
61385;SDS011;47256;18.904;-99.054;2024-01-30T14:08:05;37.30;;;10.40;;
61385;SDS011;47256;18.904;-99.054;2024-01-30T14:10:35;25.40;;;10.50;;